Time;durP1;ratioP1;P1;durP2;ratioP2;P2;SDS_P1;SDS_P2;PMS_P1;PMS_P2;Temp;Humidity;BMP_temperature;BMP_pressure;BME280_temperature;BME280_humidity;BME280_pressure;Samples;Min_cycle;Max_cycle;Signal;HPM_P1;HPM_P2
2021/03/18 00:01:53;;;;;;;5.67;4.60;;;;;;;2.95;66.75;93860.36;1712962;83;21087;-56
2021/03/18 00:04:21;;;;;;;6.00;5.33;;;;;;;2.94;66.92;93866.39;1713050;83;21160;-56
2021/03/18 00:06:49;;;;;;;7.30;6.60;;;;;;;2.98;66.89;93874.45;1712991;83;21589;-55
2021/03/18 00:09:18;;;;;;;8.50;6.37;;;;;;;2.98;65.67;93857.58;1712980;82;21186;-55
2021/03/18 00:11:49;;;;;;;6.17;5.55;;;;;;;2.92;67.02;93866.05;1712963;83;21400;-55
2021/03/18 00:14:20;;;;;;;5.20;4.80;;;;;;;2.85;67.20;93888.52;1712910;83;21209;-56
2021/03/18 00:16:50;;;;;;;5.53;5.03;;;;;;;2.77;67.29;93880.32;1713131;83;21174;-56
2021/03/18 00:19:19;;;;;;;5.30;4.90;;;;;;;2.71;67.40;93867.07;1712937;83;21138;-55
2021/03/18 00:21:48;;;;;;;5.00;4.70;;;;;;;2.67;67.67;93876.63;1713059;83;21526;-59
2021/03/18 00:24:17;;;;;;;5.78;5.37;;;;;;;2.73;67.82;93878.27;1712987;83;21224;-56
2021/03/18 00:26:45;;;;;;;5.80;5.33;;;;;;;2.77;67.92;93870.23;1713033;83;21520;-56
2021/03/18 00:29:13;;;;;;;5.30;5.00;;;;;;;2.87;67.66;93877.39;1713019;82;21463;-55
2021/03/18 00:31:47;;;;;;;5.70;5.30;;;;;;;2.93;67.37;93887.17;1684879;83;21213;-56
2021/03/18 00:34:15;;;;;;;6.22;5.80;;;;;;;2.87;67.22;93857.63;1712971;83;21075;-56
2021/03/18 00:36:44;;;;;;;7.12;4.72;;;;;;;2.77;67.74;93876.25;1717750;83;21108;-54
2021/03/18 00:39:13;;;;;;;6.33;5.83;;;;;;;2.71;67.25;93873.86;1718305;83;21087;-55
2021/03/18 00:41:41;;;;;;;5.45;5.05;;;;;;;2.69;67.48;93883.02;1718457;83;21567;-55
2021/03/18 00:44:09;;;;;;;5.80;5.40;;;;;;;2.70;67.08;93870.97;1718312;83;21132;-55
2021/03/18 00:46:37;;;;;;;5.10;4.53;;;;;;;2.73;67.54;93872.23;1696503;83;21279;-56
2021/03/18 00:49:07;;;;;;;5.08;4.60;;;;;;;2.76;67.29;93872.00;1723066;82;22150;-55
2021/03/18 00:51:35;;;;;;;4.90;4.60;;;;;;;2.78;67.12;93869.05;1722900;83;21546;-56
2021/03/18 00:54:03;;;;;;;5.25;4.85;;;;;;;2.88;67.20;93871.38;1722922;82;21069;-55
2021/03/18 00:56:31;;;;;;;6.03;5.62;;;;;;;2.90;66.83;93863.58;1722955;83;21101;-55
2021/03/18 00:59:01;;;;;;;4.80;4.50;;;;;;;2.89;66.92;93859.33;1696427;82;21668;-56
2021/03/18 01:01:29;;;;;;;4.95;4.65;;;;;;;2.89;66.96;93862.05;1722962;83;21211;-55
2021/03/18 01:04:00;;;;;;;5.33;4.92;;;;;;;2.90;66.91;93865.69;1722928;83;21192;-55
2021/03/18 01:06:30;;;;;;;4.90;4.50;;;;;;;2.92;66.33;93863.92;1722958;82;21125;-56
2021/03/18 01:08:59;;;;;;;4.78;4.37;;;;;;;2.87;66.78;93867.88;1722899;81;21161;-55
2021/03/18 01:11:33;;;;;;;5.47;4.97;;;;;;;2.84;66.99;93842.18;1723439;82;21123;-55
2021/03/18 01:14:06;;;;;;;5.62;5.20;;;;;;;2.82;67.24;93843.94;1704718;84;21389;-56
2021/03/18 01:16:47;;;;;;;5.08;4.78;;;;;;;2.82;67.70;93848.02;1717829;83;21516;-55
2021/03/18 01:19:16;;;;;;;7.65;7.03;;;;;;;2.85;67.35;93843.70;1717798;83;21052;-54
2021/03/18 01:21:47;;;;;;;8.25;6.67;;;;;;;2.87;67.51;93843.44;1717724;83;21089;-56
2021/03/18 01:24:14;;;;;;;7.55;6.53;;;;;;;2.96;66.95;93845.01;1717950;83;21084;-56
2021/03/18 01:26:44;;;;;;;6.60;6.00;;;;;;;2.99;66.72;93839.31;1717785;83;21156;-55
2021/03/18 01:29:12;;;;;;;7.62;6.85;;;;;;;3.01;66.71;93847.22;1717709;83;21088;-55
2021/03/18 01:31:41;;;;;;;9.35;8.55;;;;;;;3.02;67.30;93843.92;1693694;83;21135;-54
2021/03/18 01:34:09;;;;;;;10.70;8.48;;;;;;;2.97;67.39;93836.25;1717749;83;21127;-56
2021/03/18 01:36:39;;;;;;;10.95;8.00;;;;;;;2.93;67.64;93840.42;1717683;82;21163;-55
2021/03/18 01:39:07;;;;;;;8.35;6.72;;;;;;;2.96;68.07;93842.87;1717803;83;21259;-55
2021/03/18 01:41:36;;;;;;;8.88;6.95;;;;;;;3.01;68.10;93836.94;1717840;83;21504;-55
2021/03/18 01:44:06;;;;;;;9.90;6.42;;;;;;;2.97;67.98;93842.47;1717793;83;21072;-54
2021/03/18 01:46:34;;;;;;;7.83;6.75;;;;;;;2.96;68.29;93837.44;1717852;83;21473;-58
2021/03/18 01:49:03;;;;;;;9.08;7.30;;;;;;;3.02;68.73;93848.00;1717742;83;21131;-56
2021/03/18 01:51:32;;;;;;;9.35;8.45;;;;;;;3.17;68.85;93845.13;1717791;83;21199;-55
2021/03/18 01:54:01;;;;;;;9.30;8.18;;;;;;;3.23;68.83;93849.64;1717719;83;21068;-55
2021/03/18 01:56:30;;;;;;;9.35;6.65;;;;;;;3.36;68.55;93840.23;1717749;83;21130;-55
2021/03/18 01:58:58;;;;;;;9.95;6.95;;;;;;;3.40;68.35;93844.41;1717727;83;21996;-55
2021/03/18 02:01:26;;;;;;;20.65;12.35;;;;;;;3.29;68.60;93839.05;1717763;82;21076;-56
2021/03/18 02:03:54;;;;;;;14.75;11.45;;;;;;;3.18;68.87;93852.09;1717808;83;21145;-55
2021/03/18 02:06:22;;;;;;;7.55;6.85;;;;;;;3.14;69.40;93840.54;1670532;83;21092;-55
2021/03/18 02:08:52;;;;;;;8.65;7.80;;;;;;;3.10;68.83;93850.14;1693720;83;21079;-54
2021/03/18 02:11:19;;;;;;;11.53;9.10;;;;;;;3.08;69.35;93853.85;1717818;83;21575;-55
2021/03/18 02:13:48;;;;;;;9.03;8.13;;;;;;;3.10;69.65;93853.44;1717742;83;21127;-56
2021/03/18 02:16:16;;;;;;;12.33;8.88;;;;;;;3.13;69.74;93858.03;1717742;83;21268;-55
2021/03/18 02:19:05;;;;;;;6.62;6.10;;;;;;;3.22;69.37;93860.95;1717723;83;21095;-55
2021/03/18 02:22:02;;;;;;;8.28;7.22;;;;;;;3.18;67.58;93842.00;1717871;83;21052;-55
2021/03/18 02:24:54;;;;;;;14.28;10.43;;;;;;;3.00;68.04;93854.42;1717632;83;21147;-54
2021/03/18 02:27:55;;;;;;;8.23;7.50;;;;;;;2.93;68.08;93855.94;1717927;83;21483;-55
2021/03/18 02:30:51;;;;;;;7.95;7.25;;;;;;;2.85;68.65;93845.81;1717306;83;21310;-56
2021/03/18 02:33:55;;;;;;;6.70;6.10;;;;;;;2.83;68.60;93864.48;1717873;83;21524;-54
2021/03/18 02:36:46;;;;;;;9.45;7.92;;;;;;;2.77;67.18;93865.38;1717144;82;21124;-54
2021/03/18 02:39:20;;;;;;;7.70;7.00;;;;;;;2.78;68.19;93864.20;1717739;83;21106;-55
2021/03/18 02:41:52;;;;;;;9.65;8.68;;;;;;;2.79;68.26;93865.16;1717890;83;21175;-55
2021/03/18 02:44:25;;;;;;;;;;;;;;;2.91;68.19;93857.70;1720466;83;21273;-55
2021/03/18 02:47:00;;;;;;;7.67;6.97;;;;;;;3.07;68.25;93865.16;1693879;83;20517;-55
2021/03/18 02:49:28;;;;;;;5.37;4.97;;;;;;;3.10;67.35;93872.46;1717901;83;21195;-56
2021/03/18 02:51:56;;;;;;;5.60;5.20;;;;;;;2.98;66.16;93881.24;1717901;83;21072;-56
2021/03/18 02:54:24;;;;;;;7.10;6.50;;;;;;;2.83;66.23;93873.98;1717908;83;21087;-56
2021/03/18 02:56:52;;;;;;;6.53;6.03;;;;;;;2.72;66.41;93879.45;1717939;83;21209;-54
2021/03/18 02:59:24;;;;;;;8.18;7.40;;;;;;;2.63;66.80;93868.38;1693543;83;21175;-56
2021/03/18 03:01:51;;;;;;;9.33;8.43;;;;;;;2.63;67.34;93872.45;1717856;83;21088;-55
2021/03/18 03:04:21;;;;;;;7.95;7.15;;;;;;;2.66;67.11;93875.71;1717870;83;21071;-56
2021/03/18 03:06:49;;;;;;;5.22;4.83;;;;;;;2.71;67.22;93887.43;1717905;83;21123;-55
2021/03/18 03:09:17;;;;;;;13.30;11.90;;;;;;;2.74;66.61;93886.02;1693536;83;21221;-55
2021/03/18 03:11:45;;;;;;;8.28;7.67;;;;;;;2.75;66.52;93870.47;1717817;83;21080;-55
2021/03/18 03:14:13;;;;;;;8.08;7.37;;;;;;;2.77;66.80;93879.74;1717845;83;21076;-55
2021/03/18 03:16:42;;;;;;;13.90;12.70;;;;;;;2.83;66.93;93882.13;1717850;83;21087;-56
2021/03/18 03:19:10;;;;;;;9.40;8.65;;;;;;;2.90;66.56;93894.81;1717888;83;21583;-56
2021/03/18 03:21:38;;;;;;;6.10;5.60;;;;;;;2.93;66.09;93885.81;1717866;83;21377;-56
2021/03/18 03:24:08;;;;;;;6.60;5.97;;;;;;;2.93;66.04;93885.23;1717806;83;21108;-55
2021/03/18 03:26:35;;;;;;;5.92;5.28;;;;;;;2.87;66.32;93888.86;1717801;83;21516;-57
2021/03/18 03:29:03;;;;;;;6.70;6.10;;;;;;;2.79;66.13;93888.81;1717847;83;21178;-56
2021/03/18 03:31:31;;;;;;;6.40;5.90;;;;;;;2.73;66.37;93889.89;1717900;83;21504;-56
2021/03/18 03:34:04;;;;;;;8.83;8.03;;;;;;;2.76;66.40;93884.22;1717930;83;21215;-55
2021/03/18 03:36:35;;;;;;;6.90;6.40;;;;;;;2.76;66.31;93886.94;1717808;83;21087;-55
2021/03/18 03:39:07;;;;;;;6.25;5.70;;;;;;;2.79;66.56;93891.53;1693666;83;21091;-55
2021/03/18 03:41:35;;;;;;;5.90;5.50;;;;;;;2.84;66.72;93885.63;1718122;83;21088;-56
2021/03/18 03:44:05;;;;;;;6.00;5.50;;;;;;;2.87;66.80;93897.75;1717964;83;21516;-56
2021/03/18 03:46:34;;;;;;;5.30;4.90;;;;;;;2.91;66.80;93899.05;1717906;83;22176;-56
2021/03/18 03:49:03;;;;;;;6.15;5.75;;;;;;;2.87;66.57;93893.69;1717793;83;21100;-56
2021/03/18 03:51:54;;;;;;;5.83;5.42;;;;;;;2.82;66.44;93900.19;1717952;83;21135;-55
2021/03/18 03:54:22;;;;;;;10.78;9.68;;;;;;;2.87;66.51;93898.36;1717950;83;21527;-57
2021/03/18 03:57:05;;;;;;;13.38;12.03;;;;;;;2.96;66.32;93903.98;1717854;83;21150;-56
2021/03/18 03:59:37;;;;;;;6.85;6.25;;;;;;;3.07;66.17;93905.91;1717852;83;21255;-54
2021/03/18 04:02:04;;;;;;;5.85;5.45;;;;;;;3.15;65.98;93901.84;1717862;83;21544;-57
2021/03/18 04:04:36;;;;;;;10.45;9.63;;;;;;;3.18;65.75;93900.42;1717850;83;21076;-55
2021/03/18 04:07:08;;;;;;;6.08;5.58;;;;;;;3.25;65.35;93904.34;1717947;83;21480;-55
2021/03/18 04:09:36;;;;;;;9.25;8.38;;;;;;;3.22;64.82;93911.22;1717589;82;21087;-60
2021/03/18 04:12:06;;;;;;;6.40;5.80;;;;;;;3.14;64.74;93905.75;1670881;83;23612;-55
2021/03/18 04:14:37;;;;;;;5.80;5.30;;;;;;;3.05;65.15;93911.00;1717739;83;21083;-55
2021/03/18 04:17:09;;;;;;;5.53;5.12;;;;;;;3.04;65.34;93900.70;1717821;82;21119;-55
2021/03/18 04:19:40;;;;;;;5.37;4.80;;;;;;;3.10;65.49;93920.00;1717872;83;21159;-56
2021/03/18 04:22:09;;;;;;;5.58;5.08;;;;;;;3.00;65.16;93914.96;1717862;83;21191;-55
2021/03/18 04:24:37;;;;;;;5.90;5.40;;;;;;;2.86;65.62;93919.92;1693819;83;21178;-56
2021/03/18 04:27:05;;;;;;;6.20;5.60;;;;;;;2.77;65.44;93923.77;1717742;83;21095;-55
2021/03/18 04:29:33;;;;;;;5.90;5.40;;;;;;;2.71;65.48;93932.23;1693538;83;21266;-55
2021/03/18 04:32:02;;;;;;;8.75;6.17;;;;;;;2.66;65.67;93927.29;1717823;82;21072;-55
2021/03/18 04:34:32;;;;;;;8.33;7.58;;;;;;;2.66;65.78;93925.94;1714688;83;21064;-55
2021/03/18 04:36:59;;;;;;;6.90;6.10;;;;;;;2.68;65.87;93930.36;1717636;82;22198;-55
2021/03/18 04:39:27;;;;;;;6.40;5.83;;;;;;;2.65;66.04;93933.91;1670690;83;21154;-56
2021/03/18 04:41:56;;;;;;;5.33;4.92;;;;;;;2.61;66.14;93925.82;1717756;83;21174;-56
2021/03/18 04:44:23;;;;;;;6.00;5.55;;;;;;;2.62;65.93;93927.93;1717792;83;21060;-56
2021/03/18 04:46:52;;;;;;;5.55;5.15;;;;;;;2.62;66.25;93933.36;1717820;83;21060;-56
2021/03/18 04:49:21;;;;;;;33.90;17.85;;;;;;;2.60;66.13;93931.08;1717840;83;21383;-55
2021/03/18 04:51:49;;;;;;;28.65;15.40;;;;;;;2.57;66.50;93931.12;1717730;83;21123;-55
2021/03/18 04:54:17;;;;;;;13.95;10.43;;;;;;;2.60;67.09;93939.22;1717731;83;21837;-55
2021/03/18 04:56:45;;;;;;;39.30;21.93;;;;;;;2.73;67.25;93931.22;1717782;83;21096;-55
2021/03/18 04:59:17;;;;;;;31.90;19.60;;;;;;;2.83;67.75;93931.63;1717829;83;21071;-56
2021/03/18 05:01:48;;;;;;;13.62;10.85;;;;;;;2.79;68.41;93939.83;1717935;83;22071;-55
2021/03/18 05:04:17;;;;;;;11.20;9.73;;;;;;;2.91;67.70;93931.03;1717866;83;21507;-56
2021/03/18 05:06:52;;;;;;;7.78;7.00;;;;;;;2.94;67.12;93934.87;1717751;83;21059;-56
2021/03/18 05:09:21;;;;;;;9.75;8.73;;;;;;;2.93;66.29;93937.42;1717726;82;21180;-56
2021/03/18 05:11:52;;;;;;;7.90;7.17;;;;;;;2.91;66.63;93939.80;1717927;83;21535;-56
2021/03/18 05:14:20;;;;;;;11.15;8.58;;;;;;;2.90;66.43;93939.02;1717830;83;21369;-58
2021/03/18 05:16:51;;;;;;;13.13;9.83;;;;;;;2.91;66.51;93943.87;1717710;83;21172;-56
2021/03/18 05:19:19;;;;;;;23.00;17.37;;;;;;;2.95;67.17;93947.27;1693508;83;21159;-56
2021/03/18 05:21:48;;;;;;;22.22;18.00;;;;;;;2.97;67.21;93944.91;1717778;83;21108;-56
2021/03/18 05:24:16;;;;;;;23.12;17.42;;;;;;;3.11;67.67;93944.63;1717909;83;21496;-56
2021/03/18 05:26:44;;;;;;;24.45;19.23;;;;;;;3.25;67.89;93949.17;1717792;83;21202;-56
2021/03/18 05:29:15;;;;;;;18.92;15.40;;;;;;;3.32;68.29;93953.12;1717747;83;21119;-56
2021/03/18 05:31:44;;;;;;;14.63;11.48;;;;;;;3.46;68.03;93953.41;1717840;83;21088;-58
2021/03/18 05:34:13;;;;;;;9.70;8.58;;;;;;;3.42;67.85;93950.75;1717858;83;21143;-55
2021/03/18 05:36:43;;;;;;;9.58;7.30;;;;;;;3.40;68.08;93959.92;1718654;82;21500;-55
2021/03/18 05:39:11;;;;;;;10.15;8.75;;;;;;;3.45;68.03;93964.11;1721886;83;21384;-56
2021/03/18 05:41:39;;;;;;;7.40;6.70;;;;;;;3.43;68.04;93961.05;1721808;83;21136;-56
2021/03/18 05:44:08;;;;;;;5.78;5.28;;;;;;;3.41;67.32;93956.02;1721858;83;21166;-56
2021/03/18 05:46:36;;;;;;;6.80;6.20;;;;;;;3.39;65.76;93961.73;1722007;83;21489;-55
2021/03/18 05:49:05;;;;;;;10.43;9.43;;;;;;;3.33;65.39;93961.45;1721982;83;21076;-57
2021/03/18 05:51:33;;;;;;;11.43;8.13;;;;;;;3.31;65.27;93962.47;1722100;83;22260;-56
2021/03/18 05:54:03;;;;;;;6.50;6.00;;;;;;;3.43;64.99;93967.84;1721844;83;21128;-56
2021/03/18 05:56:33;;;;;;;6.20;5.70;;;;;;;3.50;64.10;93962.42;1721964;83;21071;-56
2021/03/18 05:59:01;;;;;;;6.53;5.92;;;;;;;3.47;63.36;93969.31;1722091;83;21626;-57
2021/03/18 06:01:29;;;;;;;6.00;5.50;;;;;;;3.41;63.47;93970.22;1722164;83;21150;-64
2021/03/18 06:03:58;;;;;;;7.67;6.97;;;;;;;3.45;63.95;93977.09;1722056;83;21383;-57
2021/03/18 06:06:26;;;;;;;6.25;5.75;;;;;;;3.51;64.02;93975.44;1722080;83;21103;-57
2021/03/18 06:08:55;;;;;;;6.70;6.10;;;;;;;3.58;63.73;93984.21;1721995;82;21103;-57
2021/03/18 06:11:23;;;;;;;7.85;7.15;;;;;;;3.58;63.68;93978.77;1721974;82;21108;-57
2021/03/18 06:13:52;;;;;;;8.10;7.40;;;;;;;3.60;64.00;93981.05;1722053;83;21068;-56
2021/03/18 06:16:21;;;;;;;8.38;7.33;;;;;;;3.78;64.51;93986.87;1722007;83;21389;-56
2021/03/18 06:18:50;;;;;;;7.55;6.85;;;;;;;3.96;64.33;93994.83;1721965;83;21147;-56
2021/03/18 06:21:18;;;;;;;12.25;9.95;;;;;;;4.12;64.23;93997.57;1721991;83;21123;-55
2021/03/18 06:23:59;;;;;;;20.72;13.58;;;;;;;4.20;64.42;94000.29;1721997;83;21088;-57
2021/03/18 06:26:38;;;;;;;15.75;11.43;;;;;;;4.37;64.35;94000.47;1722122;83;21158;-56
2021/03/18 06:29:27;;;;;;;16.52;12.15;;;;;;;4.40;63.83;94003.70;1722038;83;21209;-57
2021/03/18 06:31:55;;;;;;;16.30;12.70;;;;;;;4.32;64.00;94006.43;1710715;83;21115;-65
2021/03/18 06:34:46;;;;;;;15.05;11.97;;;;;;;4.37;64.09;94015.44;1724815;81;21073;-64
2021/03/18 06:37:34;;;;;;;17.42;13.15;;;;;;;4.36;64.55;94011.77;1719509;83;21203;-59
2021/03/18 06:40:13;;;;;;;18.10;12.45;;;;;;;4.40;64.50;94014.59;1727752;81;21191;-62
2021/03/18 06:42:55;;;;;;;12.23;8.98;;;;;;;4.42;64.58;94005.39;1743176;81;22236;-58
2021/03/18 06:45:28;;;;;;;20.60;15.08;;;;;;;4.56;63.77;94014.59;1740090;82;21187;-57
2021/03/18 06:48:02;;;;;;;15.85;13.25;;;;;;;4.76;63.70;94017.98;1663004;84;21288;-60
2021/03/18 06:50:36;;;;;;;13.35;12.00;;;;;;;4.93;63.48;94021.46;1717728;83;21198;-58
2021/03/18 06:53:26;;;;;;;22.37;20.05;;;;;;;4.99;62.73;94026.55;1714994;83;21195;-57
2021/03/18 06:55:58;;;;;;;18.07;14.43;;;;;;;4.92;63.26;94027.49;1715657;83;21250;-58
2021/03/18 06:58:28;;;;;;;12.45;11.15;;;;;;;4.85;63.23;94026.91;1686432;83;21138;-58
2021/03/18 07:01:00;;;;;;;18.60;12.30;;;;;;;4.80;62.79;94028.18;1711258;82;21521;-64
2021/03/18 07:03:37;;;;;;;19.80;12.30;;;;;;;4.70;63.14;94038.77;1686866;82;21206;-60
2021/03/18 07:06:08;;;;;;;24.90;15.00;;;;;;;4.60;63.54;94037.66;1647125;86;21172;-63
2021/03/18 07:08:40;;;;;;;31.20;17.50;;;;;;;4.45;64.22;94049.47;1685217;84;22695;-64
2021/03/18 07:11:22;;;;;;;45.98;20.70;;;;;;;4.43;64.29;94042.32;1695413;82;21012;-64
2021/03/18 07:13:51;;;;;;;23.17;14.40;;;;;;;4.42;64.48;94043.52;1706558;82;22119;-61
2021/03/18 07:16:19;;;;;;;14.83;12.88;;;;;;;4.35;64.76;94038.24;1694915;82;21222;-67
2021/03/18 07:18:59;;;;;;;18.50;13.72;;;;;;;4.37;63.11;94033.14;1687836;82;21560;-60
2021/03/18 07:21:40;;;;;;;14.07;11.95;;;;;;;4.27;64.03;94041.55;1682972;82;21493;-56
2021/03/18 07:24:29;;;;;;;17.35;14.10;;;;;;;4.27;64.29;94032.78;1688273;84;21229;-60
2021/03/18 07:27:13;;;;;;;31.50;22.07;;;;;;;4.17;63.10;94044.69;1681804;82;21625;-61
2021/03/18 07:29:44;;;;;;;18.87;14.25;;;;;;;4.13;64.55;94046.73;1686509;84;21225;-61
2021/03/18 07:32:12;;;;;;;11.85;9.83;;;;;;;4.10;64.83;94048.16;1680625;84;21368;-58
2021/03/18 07:34:45;;;;;;;8.50;7.60;;;;;;;4.01;63.29;94040.58;1683094;82;21595;-62
2021/03/18 07:37:13;;;;;;;7.17;6.55;;;;;;;3.97;62.28;94042.61;1692862;81;22618;-59
2021/03/18 07:39:42;;;;;;;8.25;7.30;;;;;;;3.89;61.53;94037.74;1750369;81;21179;-63
2021/03/18 07:42:11;;;;;;;7.12;6.42;;;;;;;3.89;61.88;94042.58;1718351;83;21213;-57
2021/03/18 07:44:40;;;;;;;7.00;6.30;;;;;;;3.91;60.83;94052.44;1697151;83;21203;-62
2021/03/18 07:47:08;;;;;;;7.55;6.78;;;;;;;3.78;60.68;94050.21;1681181;83;21547;-61
2021/03/18 07:49:40;;;;;;;8.08;7.28;;;;;;;3.74;61.05;94047.39;1689158;83;21147;-59
2021/03/18 07:52:10;;;;;;;6.92;6.33;;;;;;;3.76;61.23;94049.09;1716000;82;21134;-63
2021/03/18 07:54:38;;;;;;;6.37;5.87;;;;;;;3.79;61.10;94053.10;1677790;82;21218;-61
2021/03/18 07:57:15;;;;;;;6.70;6.10;;;;;;;3.80;60.53;94045.70;1725203;81;21071;-61
2021/03/18 07:59:45;;;;;;;10.25;8.85;;;;;;;3.78;60.37;94055.66;1717163;83;22282;-58
2021/03/18 08:02:19;;;;;;;7.28;6.58;;;;;;;3.82;60.58;94054.20;1705574;83;21178;-59
2021/03/18 08:04:52;;;;;;;14.45;10.08;;;;;;;3.83;60.39;94061.95;1707688;83;21191;-64
2021/03/18 08:07:46;;;;;;;9.30;7.62;;;;;;;3.75;60.71;94057.86;1713419;83;21673;-59
2021/03/18 08:10:26;;;;;;;7.30;6.60;;;;;;;3.76;60.88;94051.23;1708257;83;21107;-59
2021/03/18 08:12:56;;;;;;;6.78;6.17;;;;;;;3.85;60.30;94056.10;1727998;82;21294;-63
2021/03/18 08:15:42;;;;;;;6.40;5.87;;;;;;;3.83;60.15;94059.84;1705710;82;21241;-67
2021/03/18 08:18:23;;;;;;;6.40;5.83;;;;;;;3.84;60.68;94069.53;1691942;84;21214;-58
2021/03/18 08:20:58;;;;;;;6.05;5.55;;;;;;;3.75;60.16;94067.38;1701469;82;21210;-65
2021/03/18 08:23:33;;;;;;;12.00;10.80;;;;;;;3.64;60.17;94060.59;1694175;82;21190;-59
2021/03/18 08:26:05;;;;;;;9.75;7.40;;;;;;;3.63;60.81;94056.34;1722656;81;21226;-59
2021/03/18 08:28:46;;;;;;;17.12;11.28;;;;;;;3.69;60.71;94056.80;1694040;83;21762;-62
2021/03/18 08:31:19;;;;;;;15.70;11.55;;;;;;;3.70;61.04;94053.50;1721596;82;21215;-59
2021/03/18 08:33:51;;;;;;;7.47;6.78;;;;;;;3.82;60.83;94059.64;1717084;82;21215;-61
2021/03/18 08:36:50;;;;;;;6.92;6.33;;;;;;;3.96;59.22;94056.05;1693585;83;21135;-63
2021/03/18 08:39:38;;;;;;;7.53;6.72;;;;;;;4.01;59.86;94064.28;1686884;83;21487;-61
2021/03/18 08:42:31;;;;;;;6.12;5.62;;;;;;;4.17;59.87;94059.66;1646024;84;21488;-60
2021/03/18 08:45:02;;;;;;;7.35;6.67;;;;;;;4.44;59.55;94056.10;1700560;81;21650;-64
2021/03/18 08:47:41;;;;;;;10.60;9.43;;;;;;;4.63;58.20;94066.77;1690504;83;21123;-65
2021/03/18 08:50:27;;;;;;;9.45;8.18;;;;;;;4.59;58.62;94063.37;1702737;83;21171;-59
2021/03/18 08:52:57;;;;;;;12.20;9.88;;;;;;;4.67;59.66;94070.16;1695267;82;21657;-61
2021/03/18 08:55:43;;;;;;;10.00;8.40;;;;;;;4.91;59.74;94065.48;1704812;82;21206;-60
2021/03/18 08:58:14;;;;;;;8.48;7.60;;;;;;;5.10;59.39;94067.91;1676872;82;21175;-62
2021/03/18 09:00:43;;;;;;;8.63;7.78;;;;;;;5.20;57.48;94067.66;1701088;82;22140;-59
2021/03/18 09:03:18;;;;;;;10.78;8.95;;;;;;;5.13;57.76;94062.38;1708937;82;21254;-60
2021/03/18 09:05:54;;;;;;;11.20;10.03;;;;;;;5.03;58.45;94067.52;1680174;83;23035;-59
2021/03/18 09:08:30;;;;;;;10.82;9.73;;;;;;;5.01;58.92;94067.77;1701147;83;21468;-61
2021/03/18 09:11:00;;;;;;;12.05;9.60;;;;;;;5.15;59.18;94062.71;1723820;81;21260;-63
2021/03/18 09:13:31;;;;;;;10.23;8.50;;;;;;;5.24;59.28;94071.05;1682090;85;21599;-62
2021/03/18 09:16:02;;;;;;;11.00;9.90;;;;;;;5.27;58.55;94072.92;1631390;85;21258;-64
2021/03/18 09:18:33;;;;;;;9.55;7.58;;;;;;;5.26;58.08;94072.14;1710427;82;21482;-59
2021/03/18 09:21:08;;;;;;;12.40;8.45;;;;;;;5.29;58.39;94077.34;1706579;83;21202;-64
2021/03/18 09:23:39;;;;;;;8.58;7.78;;;;;;;5.26;57.32;94078.95;1709551;83;21212;-61
2021/03/18 09:26:09;;;;;;;7.40;6.67;;;;;;;5.15;57.61;94078.31;1669622;83;21112;-58
2021/03/18 09:28:41;;;;;;;7.03;6.22;;;;;;;5.18;57.54;94072.75;1674440;83;21391;-65
2021/03/18 09:31:10;;;;;;;6.78;6.08;;;;;;;5.19;56.94;94076.26;1709273;83;22002;-62
2021/03/18 09:33:40;;;;;;;7.28;5.37;;;;;;;5.16;57.08;94083.94;1708081;83;21499;-62
2021/03/18 09:36:20;;;;;;;6.30;5.70;;;;;;;5.16;56.45;94087.41;1671695;83;21635;-60
2021/03/18 09:39:13;;;;;;;6.17;5.60;;;;;;;5.22;56.60;94093.90;1690019;83;21284;-62
2021/03/18 09:41:47;;;;;;;6.58;5.62;;;;;;;5.22;56.17;94099.94;1718243;82;21186;-66
2021/03/18 09:44:21;;;;;;;5.50;5.00;;;;;;;5.17;55.88;94095.76;1666459;85;21236;-60
2021/03/18 09:46:58;;;;;;;10.70;8.23;;;;;;;5.28;56.05;94098.38;1701411;83;21233;-63
2021/03/18 09:49:30;;;;;;;7.58;6.83;;;;;;;5.38;55.80;94096.60;1696357;83;21181;-65
2021/03/18 09:52:01;;;;;;;6.62;5.90;;;;;;;5.39;55.61;94095.41;1718455;83;21115;-66
2021/03/18 09:54:30;;;;;;;9.13;8.33;;;;;;;5.56;55.97;94101.73;1720741;82;21521;-65
2021/03/18 09:57:03;;;;;;;7.78;7.17;;;;;;;5.78;55.52;94102.72;1717859;83;22294;-65
2021/03/18 09:59:31;;;;;;;;;;;;;;;6.06;55.20;94105.25;1716738;82;21194;-62
2021/03/18 10:01:59;;;;;;;6.55;5.95;;;;;;;6.34;55.06;94101.09;1709048;83;20449;-63
2021/03/18 10:04:28;;;;;;;5.83;5.33;;;;;;;6.53;55.10;94105.59;1729340;81;21186;-60
2021/03/18 10:06:58;;;;;;;6.10;5.60;;;;;;;6.70;54.97;94103.53;1708627;82;21203;-61
2021/03/18 10:09:42;;;;;;;7.28;6.67;;;;;;;6.75;54.26;94107.08;1705653;83;21391;-63
2021/03/18 10:12:14;;;;;;;6.50;5.92;;;;;;;6.72;54.31;94112.06;1670493;84;21554;-63
2021/03/18 10:15:02;;;;;;;7.30;6.70;;;;;;;6.75;54.04;94107.86;1714966;81;22342;-61
2021/03/18 10:17:36;;;;;;;10.08;8.73;;;;;;;6.67;54.13;94104.41;1718879;82;21138;-59
2021/03/18 10:20:12;;;;;;;11.43;9.85;;;;;;;6.51;54.93;94109.98;1702744;83;21118;-64
2021/03/18 10:22:46;;;;;;;28.07;17.40;;;;;;;6.62;55.42;94104.94;1730666;81;22312;-63
2021/03/18 10:25:17;;;;;;;10.03;7.75;;;;;;;6.73;56.11;94108.13;1725851;81;21287;-61
2021/03/18 10:27:50;;;;;;;11.43;10.18;;;;;;;6.73;55.75;94113.59;1720078;82;21186;-65
2021/03/18 10:30:22;;;;;;;13.22;10.60;;;;;;;6.79;55.21;94102.27;1720711;81;21111;-61
2021/03/18 10:33:15;;;;;;;10.70;8.93;;;;;;;6.99;55.10;94105.52;1721902;82;21174;-61
2021/03/18 10:35:55;;;;;;;7.30;6.60;;;;;;;7.21;54.60;94105.18;1726165;82;21341;-58
2021/03/18 10:38:33;;;;;;;6.00;5.50;;;;;;;7.29;52.75;94103.73;1692346;84;21581;-60
2021/03/18 10:41:12;;;;;;;5.72;5.22;;;;;;;7.39;51.76;94103.98;1717853;81;21763;-64
2021/03/18 10:43:46;;;;;;;5.85;5.28;;;;;;;7.56;52.07;94102.59;1697446;81;21710;-61
2021/03/18 10:46:18;;;;;;;5.35;4.85;;;;;;;7.77;51.51;94111.47;1691545;84;21203;-59
2021/03/18 10:48:47;;;;;;;5.30;4.83;;;;;;;7.99;50.55;94108.72;1685283;83;22367;-60
2021/03/18 10:51:18;;;;;;;5.28;4.83;;;;;;;8.26;49.50;94108.33;1691290;84;21174;-60
2021/03/18 10:53:49;;;;;;;4.65;4.30;;;;;;;8.43;49.12;94103.42;1720259;83;21222;-60
2021/03/18 10:56:25;;;;;;;4.80;4.37;;;;;;;8.45;48.76;94097.63;1716356;83;21662;-60
2021/03/18 10:58:54;;;;;;;6.67;4.90;;;;;;;8.41;48.61;94092.89;1689639;83;21218;-60
2021/03/18 11:01:27;;;;;;;7.47;6.58;;;;;;;8.22;48.91;94100.11;1706756;83;21581;-60
2021/03/18 11:04:07;;;;;;;5.90;5.30;;;;;;;7.98;49.47;94098.98;1724437;81;21244;-64
2021/03/18 11:06:47;;;;;;;4.70;4.30;;;;;;;7.74;48.18;94107.47;1710645;82;21500;-65
2021/03/18 11:09:22;;;;;;;15.30;11.97;;;;;;;7.40;47.64;94092.42;1702316;84;21203;-64
2021/03/18 11:11:58;;;;;;;8.23;6.50;;;;;;;7.26;47.03;94087.42;1719800;81;21214;-61
2021/03/18 11:14:27;;;;;;;5.62;5.10;;;;;;;7.19;47.46;94092.52;1721507;83;21370;-62
2021/03/18 11:17:04;;;;;;;4.37;4.08;;;;;;;7.22;47.97;94099.09;1718113;83;21658;-60
2021/03/18 11:19:39;;;;;;;7.12;5.12;;;;;;;7.24;47.16;94081.05;1691088;84;22226;-63
2021/03/18 11:22:07;;;;;;;7.55;5.05;;;;;;;7.19;47.56;94092.52;1709657;83;21623;-59
2021/03/18 11:24:38;;;;;;;6.67;6.08;;;;;;;7.34;47.22;94090.84;1689680;84;21174;-61
2021/03/18 11:27:07;;;;;;;5.85;5.25;;;;;;;7.56;46.91;94093.02;1699777;83;21206;-60
2021/03/18 11:29:36;;;;;;;5.22;4.72;;;;;;;7.76;46.40;94078.45;1691304;84;21135;-60
2021/03/18 11:32:07;;;;;;;9.25;8.33;;;;;;;7.89;45.83;94083.87;1693400;83;21218;-63
2021/03/18 11:34:37;;;;;;;6.37;5.80;;;;;;;7.92;45.51;94082.35;1699047;83;21184;-60
2021/03/18 11:37:08;;;;;;;5.70;4.70;;;;;;;7.81;46.17;94081.98;1716809;81;21405;-63
2021/03/18 11:39:37;;;;;;;5.15;4.65;;;;;;;7.69;46.01;94081.42;1742949;81;21200;-60
2021/03/18 11:42:05;;;;;;;4.83;4.42;;;;;;;7.53;46.30;94080.22;1686863;84;21118;-61
2021/03/18 11:44:33;;;;;;;4.65;4.25;;;;;;;7.38;45.30;94072.34;1726186;82;21196;-66
2021/03/18 11:47:12;;;;;;;6.10;5.60;;;;;;;7.20;46.06;94076.30;1674274;84;22396;-59
2021/03/18 11:49:44;;;;;;;5.22;4.80;;;;;;;7.05;45.77;94073.70;1668629;84;21175;-59
2021/03/18 11:52:12;;;;;;;6.35;4.90;;;;;;;6.96;46.02;94079.06;1668075;84;21381;-59
2021/03/18 11:54:42;;;;;;;5.20;4.70;;;;;;;7.00;46.41;94072.88;1685976;84;21223;-63
2021/03/18 11:57:10;;;;;;;5.83;5.33;;;;;;;6.91;45.56;94062.60;1692452;83;21195;-62
2021/03/18 11:59:38;;;;;;;6.62;6.03;;;;;;;6.77;45.58;94062.30;1690965;82;21639;-58
2021/03/18 12:02:06;;;;;;;5.80;5.22;;;;;;;6.68;47.08;94062.22;1692321;82;21183;-61
2021/03/18 12:04:35;;;;;;;7.42;5.78;;;;;;;6.50;47.82;94068.22;1691770;84;21410;-64